Latest Weather Observations for Nerriga

IDN60801

Issued at 1:22 pm EDT Saturday 17 November 2018 (issued every 10 minutes, with the page automatically refreshed every 10 minutes)

About weather observations | Map of weather stations | Latest weather observations for NSW | Other Formats
Station Details ID: 069128 Name: NERRIGA AWS Lat: -35.11 Lon: 150.08 Height: 622.0 m
Data from the previous 72 hours. | See also: Recent months at Nerriga
Date/Time
EDT
Temp
°C
App
Temp
°C
Dew
Point
°C
Rel
Hum
%
Delta-T
°C
Wind Press
QNH
hPa
Press
MSL
hPa
Rain since
9am
mm
Dir  Spd
km/h
Gust
km/h
Spd
kts
Gust
kts
17/01:00pm 15.9 12.2 9.3 65 3.5 SSE 19 28 10 15 1022.2 1020.7 0.2
17/12:30pm 15.0 11.0 10.6 75 2.4 SE 22 33 12 18 1022.3 1020.8 0.2
17/12:00pm 13.1 9.6 10.3 83 1.5 SSE 19 28 10 15 1022.5 1021.0 0.2
17/11:30am 12.7 10.2 10.9 89 1.0 SSE 15 22 8 12 1022.4 1020.9 0.2
17/11:00am 12.1 8.8 11.0 93 0.6 S 19 24 10 13 1022.3 1020.8 0.2
17/10:30am 13.7 10.2 10.1 79 1.9 SE 19 28 10 15 1021.9 1020.5 0.0
17/10:00am 13.8 11.4 10.0 78 2.0 S 13 20 7 11 1021.6 1020.2 0.0
17/09:30am 14.2 11.7 9.8 75 2.3 S 13 19 7 10 1021.5 1020.0 0.0
17/09:00am 14.2 11.3 9.8 75 2.3 SSE 15 20 8 11 1021.3 1019.8 0.0
17/08:30am 13.8 10.9 9.8 77 2.1 SSE 15 17 8 9 1021.1 1019.6 0.0
17/08:00am 14.7 12.2 9.7 72 2.7 SE 13 19 7 10 1020.8 1019.3 0.0
17/07:30am 13.4 10.7 8.9 74 2.3 ENE 13 17 7 9 1020.4 1018.9 0.0
17/07:00am 13.4 11.6 9.5 77 2.1 ENE 9 13 5 7 1019.9 1018.4 0.0
17/06:30am 11.2 9.7 9.3 88 1.0 ENE 7 9 4 5 1019.8 1018.3 0.0
17/06:00am 11.6 10.2 8.8 83 1.4 ENE 6 6 3 3 1019.5 1018.0 0.0
17/05:30am 12.3 11.0 9.1 81 1.7 ENE 6 7 3 4 1019.1 1017.6 0.0
17/05:00am 12.3 11.5 9.5 83 1.5 ENE 4 6 2 3 1018.9 1017.4 0.0
17/04:30am 12.3 11.0 9.3 82 1.6 ENE 6 7 3 4 1018.8 1017.2 0.0
17/04:00am 12.2 10.8 9.6 84 1.4 ENE 7 9 4 5 1018.8 1017.2 0.0
17/03:30am 12.2 10.9 9.9 86 1.2 ENE 7 9 4 5 1018.8 1017.2 0.0
17/03:00am 12.2 11.1 9.9 86 1.2 ENE 6 7 3 4 1018.8 1017.2 0.0
17/02:30am 12.4 11.6 9.8 84 1.4 ENE 4 6 2 3 1019.0 1017.5 0.0
17/02:00am 12.4 11.0 9.6 83 1.5 ENE 7 9 4 5 1019.2 1017.7 0.0
17/01:30am 12.1 10.8 9.8 86 1.2 ENE 7 9 4 5 1019.5 1018.0 0.0
17/01:00am 12.5 11.2 9.3 81 1.7 ENE 6 7 3 4 1019.7 1018.2 0.0
17/12:30am 12.6 11.2 9.4 81 1.7 ENE 7 9 4 5 1019.9 1018.4 0.0
17/12:00am 12.6 11.2 9.6 82 1.6 ENE 7 9 4 5 1020.1 1018.6 0.0
 
Date/Time
EDT
Temp
°C
App
Temp
°C
Dew
Point
°C
Rel
Hum
%
Delta-T
°C
Wind Press
QNH
hPa
Press
MSL
hPa
Rain since
9am
mm
Dir  Spd
km/h
Gust
km/h
Spd
kts
Gust
kts
16/11:30pm 12.6 10.8 9.4 81 1.7 ENE 9 13 5 7 1020.1 1018.6 0.0
16/11:00pm 12.8 11.0 9.3 79 1.8 ENE 9 13 5 7 1020.2 1018.8 0.0
16/10:30pm 12.9 11.5 9.5 80 1.8 ENE 7 9 4 5 1020.1 1018.6 0.0
16/10:00pm 13.0 10.4 9.3 78 1.9 ENE 13 19 7 10 1020.0 1018.5 0.0
16/09:30pm 13.2 11.5 9.8 80 1.8 NE 9 17 5 9 1019.9 1018.4 0.0
16/09:00pm 13.0 11.7 10.0 82 1.6 NE 7 11 4 6 1019.6 1018.1 0.0
16/08:30pm 12.8 10.7 9.8 82 1.6 NE 11 13 6 7 1019.4 1017.9 0.0
16/08:00pm 12.7 9.9 9.9 83 1.5 NE 15 20 8 11 1019.1 1017.6 0.0
16/07:30pm 13.1 10.6 9.7 80 1.8 NE 13 20 7 11 1019.0 1017.5 0.0
16/07:00pm 14.2 11.0 9.8 75 2.3 NE 17 22 9 12 1018.8 1017.2 0.0
16/06:30pm 15.2 12.1 10.2 72 2.7 NE 17 24 9 13 1018.5 1017.0 0.0
16/06:00pm 15.5 12.0 10.3 71 2.8 ENE 19 24 10 13 1018.3 1016.8 0.0
16/05:30pm 15.6 11.9 10.2 70 2.9 ENE 20 26 11 14 1018.4 1016.9 0.0
16/05:00pm 16.2 13.5 10.3 68 3.2 ENE 15 24 8 13 1018.8 1017.2 0.0
16/04:30pm 16.2 12.6 10.5 69 3.1 NE 20 28 11 15 1018.7 1017.1 0.0
16/04:00pm 15.6 12.0 10.6 72 2.7 E 20 28 11 15 1018.9 1017.4 0.0
16/03:30pm 16.6 14.4 10.7 68 3.2 ENE 13 20 7 11 1019.4 1017.9 0.0
16/03:00pm 15.3 12.4 11.1 76 2.3 ENE 17 20 9 11 1019.8 1018.3 0.0
16/02:30pm 15.1 13.3 10.9 76 2.3 E 11 15 6 8 1020.5 1019.0 0.0
16/02:00pm 14.7 12.7 10.3 75 2.4 ENE 11 17 6 9 1020.6 1019.1 0.0
16/01:30pm 14.2 11.8 10.2 77 2.2 ENE 13 17 7 9 1021.0 1019.5 0.0
16/01:00pm 14.9 12.9 10.1 73 2.6 ENE 11 17 6 9 1021.3 1019.8 0.0
16/12:30pm 13.8 11.7 9.8 77 2.1 ENE 11 19 6 10 1021.6 1020.2 0.0
16/12:00pm 13.8 11.9 10.6 81 1.7 ESE 11 17 6 9 1021.6 1020.2 0.0
16/11:30am 13.9 11.9 10.1 78 2.0 E 11 17 6 9 1021.9 1020.5 0.0
16/11:00am 14.1 11.7 9.9 76 2.2 ESE 13 17 7 9 1022.2 1020.7 0.0
16/10:30am 13.2 12.0 9.6 79 1.9 ESE 6 11 3 6 1022.4 1020.9 0.0
16/10:00am 13.2 11.6 10.2 82 1.6 ESE 9 17 5 9 1022.3 1020.8 0.0
16/09:30am 12.2 10.1 9.9 86 1.2 SE 11 17 6 9 1022.4 1020.9 0.0
16/09:00am 11.6 10.5 9.9 89 0.9 SE 6 9 3 5 1022.5 1021.0 0.0
16/08:30am 11.2 9.4 9.5 89 0.9 SE 9 15 5 8 1022.6 1021.1 0.0
16/08:00am 11.2 9.7 9.1 87 1.1 SE 7 11 4 6 1022.6 1021.1 0.0
16/07:30am 10.4 8.3 8.3 87 1.1 SE 9 13 5 7 1022.5 1021.0 0.0
16/07:00am 10.2 8.6 7.8 85 1.2 SE 6 9 3 5 1022.5 1021.0 0.0
16/06:30am 9.9 8.5 7.2 83 1.3 SE 4 6 2 3 1022.4 1020.9 0.0
16/06:00am 9.8 8.0 7.1 83 1.3 SE 6 7 3 4 1022.6 1021.1 0.0
16/05:30am 9.9 7.9 6.4 79 1.7 SE 6 9 3 5 1022.2 1020.7 0.0
16/05:00am 10.0 8.0 6.2 77 1.8 SE 6 9 3 5 1022.3 1020.8 0.0
16/04:30am 10.0 8.0 6.2 77 1.8 SE 6 9 3 5 1022.3 1020.8 0.0
16/04:00am 10.1 8.9 6.3 77 1.8 SE 2 7 1 4 1022.4 1020.9 0.0
16/03:30am 10.2 8.1 6.7 79 1.7 SE 7 9 4 5 1022.4 1020.9 0.0
16/03:00am 10.3 8.5 7.2 81 1.5 SE 6 7 3 4 1022.8 1021.3 0.0
16/02:30am 10.4 9.0 7.3 81 1.5 SE 4 7 2 4 1023.1 1021.7 0.0
16/02:00am 10.3 8.8 7.0 80 1.6 SE 4 6 2 3 1023.2 1021.8 0.0
16/01:30am 10.4 8.5 6.9 79 1.7 SE 6 9 3 5 1023.4 1022.0 0.0
16/01:00am 10.4 8.8 6.5 77 1.9 SE 4 6 2 3 1023.8 1022.3 0.0
16/12:30am 10.5 8.0 6.6 77 1.9 SE 9 19 5 10 1024.3 1022.8 0.0
16/12:00am 10.6 8.2 6.9 78 1.8 SE 9 17 5 9 1024.3 1022.8 0.0
 
Date/Time
EDT
Temp
°C
App
Temp
°C
Dew
Point
°C
Rel
Hum
%
Delta-T
°C
Wind Press
QNH
hPa
Press
MSL
hPa
Rain since
9am
mm
Dir  Spd
km/h
Gust
km/h
Spd
kts
Gust
kts
15/11:30pm 10.5 8.4 6.8 78 1.8 SE 7 13 4 7 1024.5 1023.1 0.0
15/11:00pm 10.6 7.2 7.7 82 1.4 SE 15 20 8 11 1024.7 1023.3 0.0
15/10:30pm 10.5 6.5 8.4 87 1.1 SE 19 28 10 15 1024.4 1023.0 0.0
15/10:00pm 10.5 7.9 9.3 92 0.6 SE 13 22 7 12 1024.5 1023.1 0.0
15/09:30pm 10.7 8.6 9.6 93 0.6 SE 11 20 6 11 1024.3 1022.8 0.0
15/09:00pm 10.8 8.4 9.9 94 0.5 SE 13 24 7 13 1023.9 1022.4 0.0
15/08:30pm 10.6 9.4 9.7 94 0.5 SE 6 9 3 5 1023.9 1022.4 0.0
15/08:00pm 10.6 7.7 9.5 93 0.6 SE 15 26 8 14 1023.6 1022.2 0.0
15/07:30pm 10.8 8.4 10.0 95 0.4 SE 13 20 7 11 1023.4 1022.0 0.0
15/07:00pm 11.1 8.4 10.3 95 0.4 ESE 15 26 8 14 1022.7 1021.2 0.0
15/06:30pm 11.5 8.3 9.9 90 0.8 ESE 17 28 9 15 1022.4 1020.9 0.0
15/06:00pm 11.9 8.7 10.0 88 1.0 ESE 17 26 9 14 1022.1 1020.6 0.0
15/05:30pm 11.9 8.8 10.3 90 0.9 SE 17 24 9 13 1021.7 1020.3 0.0
15/05:00pm 12.2 8.7 10.1 87 1.1 ESE 19 30 10 16 1021.4 1019.9 0.0
15/04:30pm 12.0 8.6 10.4 90 0.9 ESE 19 30 10 16 1021.4 1019.9 0.0
15/04:00pm 12.8 9.1 10.3 85 1.3 ESE 20 32 11 17 1021.0 1019.5 0.0
15/03:30pm 12.9 9.6 11.5 91 0.8 ESE 20 28 11 15 1020.9 1019.4 0.0
15/03:00pm 13.9 11.0 10.9 82 1.6 ESE 17 24 9 13 1020.8 1019.3 0.0
15/02:30pm 14.4 11.0 11.2 81 1.8 ESE 20 28 11 15 1020.7 1019.2 0.0
15/02:00pm 13.7 10.4 11.0 84 1.5 ESE 19 28 10 15 1021.0 1019.5 0.0
15/01:30pm 14.8 12.0 11.2 79 2.0 E 17 26 9 14 1021.0 1019.5 0.0
15/01:00pm 14.4 10.2 11.0 80 1.9 SE 24 33 13 18 1020.9 1019.4 0.0
15/12:30pm 15.5 12.1 11.3 76 2.3 SE 20 28 11 15 1020.7 1019.2 0.0
15/12:00pm 14.7 11.6 11.7 82 1.7 SE 19 28 10 15 1021.0 1019.5 0.0
15/11:30am 14.1 10.7 11.3 83 1.5 SE 20 28 11 15 1021.3 1019.8 0.0
15/11:00am 15.1 12.5 12.1 82 1.7 SE 17 24 9 13 1021.3 1019.8 0.0
15/10:30am 15.1 12.6 12.2 83 1.6 SE 17 26 9 14 1021.1 1019.6 0.0
15/10:00am 15.9 14.1 13.4 85 1.4 SE 15 22 8 12 1020.7 1019.2 0.0
15/09:30am 15.1 13.2 13.1 88 1.1 NW 15 20 8 11 1020.7 1019.2 0.0
15/09:00am 15.2 14.7 13.7 91 0.9 NW 9 13 5 7 1020.5 1019.0 1.0
15/08:30am 15.1 14.7 14.0 93 0.6 NW 9 15 5 8 1020.0 1018.5 1.0
15/08:00am 14.5 15.1 14.2 98 0.2 NW 4 9 2 5 1019.6 1018.1 1.0
15/07:30am 14.4 14.7 14.4 100 0.0 NW 6 11 3 6 1019.2 1017.7 1.0
15/07:00am 14.4 14.5 14.4 100 0.0 NW 7 13 4 7 1018.7 1017.1 1.0
15/06:30am 14.3 13.5 14.1 99 0.1 NW 11 17 6 9 1018.1 1016.6 1.0
15/06:00am 14.0 12.4 14.0 100 0.0 NW 15 19 8 10 1017.9 1016.4 1.0
15/05:30am 12.5 11.2 12.5 100 0.0 NW 11 13 6 7 1017.4 1015.9 1.0
15/05:00am 12.0 11.3 12.0 100 0.0 NW 7 7 4 4 1017.1 1015.5 1.0
15/04:30am 11.6 12.0 11.3 98 0.2 CALM 0 0 0 0 1016.7 1015.2 1.0
15/04:00am 11.9 12.3 11.4 97 0.3 CALM 0 0 0 0 1016.7 1015.2 1.0
15/03:30am 12.9 13.7 12.4 97 0.3 CALM 0 0 0 0 1016.5 1015.0 1.0
15/03:00am 13.4 14.2 12.6 95 0.4 CALM 0 2 0 1 1016.6 1015.1 1.0
15/02:30am 13.8 14.6 12.7 93 0.6 CALM 0 0 0 0 1016.7 1015.2 1.0
15/02:00am 14.8 15.5 13.5 92 0.7 NW 2 4 1 2 1016.8 1015.3 1.0
15/01:30am 14.7 15.7 13.2 91 0.9 CALM 0 0 0 0 1017.1 1015.5 1.0
15/01:00am 14.4 15.3 12.8 90 0.9 CALM 0 0 0 0 1017.3 1015.7 1.0
15/12:30am 15.4 15.3 13.4 88 1.2 NW 6 7 3 4 1017.4 1015.9 1.0
15/12:00am 15.3 15.7 13.7 90 0.9 NW 4 6 2 3 1017.6 1016.1 1.0
 
Date/Time
EDT
Temp
°C
App
Temp
°C
Dew
Point
°C
Rel
Hum
%
Delta-T
°C
Wind Press
QNH
hPa
Press
MSL
hPa
Rain since
9am
mm
Dir  Spd
km/h
Gust
km/h
Spd
kts
Gust
kts
14/11:30pm 15.3 15.7 13.7 90 0.9 NW 4 6 2 3 1017.7 1016.2 1.0
14/11:00pm 16.2 16.5 14.4 89 1.1 NW 6 7 3 4 1017.7 1016.2 1.0
14/10:30pm 15.1 15.3 13.1 88 1.1 NW 4 6 2 3 1017.7 1016.2 1.0
14/10:00pm 16.4 17.0 14.2 87 1.3 NW 4 6 2 3 1017.6 1016.1 1.0
14/09:30pm 16.4 16.9 13.9 85 1.5 NW 4 6 2 3 1017.4 1015.9 1.0
14/09:00pm 16.8 16.3 13.9 83 1.7 NW 9 15 5 8 1017.1 1015.5 1.0
14/08:30pm 17.2 15.5 13.7 80 2.0 NW 15 20 8 11 1016.7 1015.2 1.0
14/08:00pm 17.6 16.9 13.3 76 2.5 NNW 9 11 5 6 1016.6 1015.1 1.0
14/07:30pm 18.3 16.8 13.0 71 3.1 NNW 13 19 7 10 1016.3 1014.8 1.0
14/07:00pm 19.7 16.9 13.2 66 3.8 NW 20 30 11 16 1015.9 1014.3 1.0
14/06:30pm 20.4 16.4 12.9 62 4.4 NW 26 35 14 19 1015.7 1014.1 1.0
14/06:00pm 21.3 19.1 13.2 60 4.8 WNW 17 24 9 13 1015.6 1014.0 1.0
14/05:30pm 20.8 18.3 14.0 65 4.1 NW 20 32 11 17 1015.8 1014.2 1.0
14/05:00pm 19.4 17.1 14.0 71 3.2 W 19 30 10 16 1015.8 1014.2 1.0
14/04:30pm 19.9 18.1 14.5 71 3.2 WNW 17 22 9 12 1015.7 1014.1 1.0
14/04:00pm 18.8 17.5 14.9 78 2.3 WNW 15 20 8 11 1015.8 1014.2 1.0
14/03:30pm 18.2 17.9 15.5 84 1.6 NW 11 17 6 9 1015.8 1014.2 1.0
14/03:00pm 19.1 18.9 14.6 75 2.7 N 9 15 5 8 1015.8 1014.2 0.4
14/02:30pm 19.2 18.8 15.1 77 2.5 N 11 19 6 10 1016.0 1014.5 0.4
14/02:00pm 18.8 18.0 15.1 79 2.2 NNW 13 17 7 9 1016.3 1014.8 0.4
14/01:30pm 18.3 17.1 14.0 76 2.5 NNW 13 20 7 11 1016.3 1014.8 0.4

Other Formats:

Comma delimited format used in spreadsheet applications
http://www.bom.gov.au/fwo/IDN60801/IDN60801.94943.axf

JavaScript Object Notation format (JSON) in row-major order
http://www.bom.gov.au/fwo/IDN60801/IDN60801.94943.json